createdAt,value
2023-05-06T00:00:40.985Z,80.23
2023-05-06T00:01:40.941Z,81.25
2023-05-06T00:02:41.137Z,80.64
2023-05-06T00:03:41.238Z,81.35
2023-05-06T00:04:40.951Z,81.76
2023-05-06T00:05:40.920Z,82.88
2023-05-06T00:06:40.897Z,83.53
2023-05-06T00:07:40.885Z,82.41
2023-05-06T00:08:40.879Z,84.25
2023-05-06T00:09:40.891Z,84.45
2023-05-06T00:10:40.884Z,85.37
2023-05-06T00:11:40.836Z,85.98
2023-05-06T00:12:40.886Z,86.29
2023-05-06T00:13:40.847Z,85.68
2023-05-06T00:14:40.811Z,85.37
2023-05-06T00:15:40.807Z,86.49
2023-05-06T00:16:40.935Z,86.49
2023-05-06T00:17:40.853Z,87.71
2023-05-06T00:18:40.790Z,87.41
2023-05-06T00:19:40.811Z,87.92
2023-05-06T00:20:40.778Z,86.59
2023-05-06T00:21:40.758Z,85.30
2023-05-06T00:22:40.743Z,86.63
2023-05-06T00:23:40.758Z,86.73
2023-05-06T00:24:40.735Z,86.43
2023-05-06T00:25:40.736Z,85.45
2023-05-06T00:26:40.714Z,87.29
2023-05-06T00:27:40.694Z,86.67
2023-05-06T00:28:40.674Z,87.49
2023-05-06T00:29:40.747Z,88.71
2023-05-06T00:30:40.637Z,87.38
2023-05-06T00:31:40.665Z,88.10
2023-05-06T00:32:40.717Z,87.79
2023-05-06T00:33:40.612Z,88.00
2023-05-06T00:34:40.583Z,88.51
2023-05-06T00:35:40.601Z,89.32
2023-05-06T00:36:40.592Z,88.92
2023-05-06T00:37:40.548Z,88.61
2023-05-06T00:38:40.611Z,89.23
2023-05-06T00:39:40.558Z,88.92
2023-05-06T00:40:40.574Z,87.70
2023-05-06T00:41:40.520Z,88.51
2023-05-06T00:42:40.522Z,88.31
2023-05-06T00:43:40.515Z,87.49
2023-05-06T00:44:40.489Z,88.31
2023-05-06T00:45:46.554Z,88.20
2023-05-06T00:46:42.157Z,88.82
2023-05-06T00:47:40.513Z,88.61
2023-05-06T00:48:41.166Z,88.41
2023-05-06T00:49:40.455Z,88.82
2023-05-06T00:50:40.428Z,89.53
2023-05-06T00:51:40.405Z,88.61
2023-05-06T00:52:40.390Z,88.71
2023-05-06T00:53:40.405Z,88.92
2023-05-06T00:54:40.414Z,89.32
2023-05-06T00:55:40.370Z,89.32
2023-05-06T00:56:40.349Z,89.63
2023-05-06T00:57:40.360Z,90.25
2023-05-06T00:58:40.390Z,90.86
2023-05-06T00:59:40.367Z,90.55
2023-05-06T01:00:40.300Z,90.14
2023-05-06T01:01:40.409Z,90.04
2023-05-06T01:02:47.150Z,88.41
2023-05-06T01:03:40.380Z,89.12
2023-05-06T01:04:40.303Z,89.58
2023-05-06T01:05:40.265Z,89.58
2023-05-06T01:06:40.274Z,90.39
2023-05-06T01:07:40.242Z,89.98
2023-05-06T01:08:40.228Z,89.98
2023-05-06T01:09:40.222Z,89.88
2023-05-06T01:10:40.204Z,89.31
2023-05-06T01:11:40.236Z,89.82
2023-05-06T01:12:40.181Z,89.61
2023-05-06T01:13:40.180Z,89.51
2023-05-06T01:14:40.251Z,90.33
2023-05-06T01:15:40.156Z,90.23
2023-05-06T01:16:40.173Z,90.23
2023-05-06T01:17:40.178Z,90.02
2023-05-06T01:18:40.165Z,90.33
2023-05-06T01:19:40.103Z,90.43
2023-05-06T01:20:40.098Z,90.23
2023-05-06T01:21:40.097Z,89.92
2023-05-06T01:22:40.111Z,90.33
2023-05-06T01:23:40.070Z,89.92
2023-05-06T01:24:40.056Z,89.92
2023-05-06T01:25:40.048Z,90.64
2023-05-06T01:26:40.032Z,89.72
2023-05-06T01:27:40.094Z,89.86
2023-05-06T01:28:40.039Z,90.37
2023-05-06T01:29:40.021Z,90.99
2023-05-06T01:30:39.985Z,90.99
2023-05-06T01:31:40.075Z,91.09
2023-05-06T01:32:40.037Z,91.56
2023-05-06T01:33:40.028Z,91.05
2023-05-06T01:34:39.946Z,91.15
2023-05-06T01:35:39.979Z,91.05
2023-05-06T01:36:39.957Z,90.12
2023-05-06T01:37:39.964Z,90.12
2023-05-06T01:38:39.920Z,89.41
2023-05-06T01:39:39.901Z,89.51
2023-05-06T01:40:39.877Z,88.64
2023-05-06T01:41:39.885Z,88.33
2023-05-06T01:42:39.921Z,89.15
2023-05-06T01:43:39.847Z,89.76
2023-05-06T01:44:39.909Z,89.97
2023-05-06T01:45:39.870Z,90.58
2023-05-06T01:46:39.929Z,91.60
2023-05-06T01:47:39.829Z,91.80
2023-05-06T01:48:39.787Z,90.58
2023-05-06T01:49:39.802Z,91.29
2023-05-06T01:50:39.852Z,90.68
2023-05-06T01:51:39.779Z,90.88
2023-05-06T01:52:39.752Z,90.06
2023-05-06T01:53:39.732Z,90.47
2023-05-06T01:54:39.749Z,90.11
2023-05-06T01:55:39.726Z,90.62
2023-05-06T01:56:39.716Z,90.82
2023-05-06T01:57:39.692Z,90.52
2023-05-06T01:58:39.696Z,90.31
2023-05-06T01:59:39.678Z,90.25
2023-05-06T02:00:39.668Z,91.27
2023-05-06T02:01:39.776Z,91.69
2023-05-06T02:02:39.796Z,91.07
2023-05-06T02:03:39.710Z,90.81
2023-05-06T02:04:39.758Z,91.22
2023-05-06T02:05:39.618Z,91.11
2023-05-06T02:06:39.592Z,91.11
2023-05-06T02:07:39.611Z,91.52
2023-05-06T02:08:39.599Z,91.63
2023-05-06T02:09:39.566Z,91.77
2023-05-06T02:10:39.594Z,92.59
2023-05-06T02:11:39.581Z,93.51
2023-05-06T02:12:39.562Z,92.69
2023-05-06T02:13:39.530Z,92.96
2023-05-06T02:14:39.508Z,92.65
2023-05-06T02:15:39.534Z,91.87
2023-05-06T02:16:39.594Z,91.93
2023-05-06T02:17:39.540Z,91.26
2023-05-06T02:18:39.474Z,91.26
2023-05-06T02:19:39.445Z,91.56
2023-05-06T02:20:39.501Z,92.18
2023-05-06T02:21:39.441Z,92.79
2023-05-06T02:22:39.435Z,92.79
2023-05-06T02:23:39.419Z,92.79
2023-05-06T02:24:39.400Z,92.69
2023-05-06T02:25:39.471Z,91.67
2023-05-06T02:26:39.396Z,91.77
2023-05-06T02:27:39.402Z,91.77
2023-05-06T02:28:39.353Z,92.69
2023-05-06T02:29:39.416Z,92.49
2023-05-06T02:30:39.369Z,92.59
2023-05-06T02:31:39.352Z,90.64
2023-05-06T02:32:39.377Z,90.95
2023-05-06T02:33:39.302Z,91.91
2023-05-06T02:34:39.280Z,92.12
2023-05-06T02:35:39.292Z,92.22
2023-05-06T02:36:39.279Z,92.83
2023-05-06T02:37:39.273Z,93.10
2023-05-06T02:38:39.241Z,93.10
2023-05-06T02:39:39.241Z,93.30
2023-05-06T02:40:39.244Z,92.69
2023-05-06T02:41:39.289Z,92.08
2023-05-06T02:42:39.204Z,92.38
2023-05-06T02:43:39.191Z,92.18
2023-05-06T02:44:39.180Z,92.28
2023-05-06T02:45:39.227Z,92.28
2023-05-06T02:46:39.150Z,92.18
2023-05-06T02:47:39.165Z,91.97
2023-05-06T02:48:39.147Z,91.67
2023-05-06T02:49:39.129Z,90.54
2023-05-06T02:50:39.140Z,90.95
2023-05-06T02:51:39.112Z,91.97
2023-05-06T02:52:39.086Z,92.79
2023-05-06T02:53:39.092Z,92.69
2023-05-06T02:54:39.064Z,93.41
2023-05-06T02:55:39.095Z,93.62
2023-05-06T02:56:39.070Z,92.53
2023-05-06T02:57:39.052Z,92.43
2023-05-06T02:58:39.037Z,93.35
2023-05-06T02:59:39.011Z,93.15
2023-05-06T03:00:39.030Z,92.94
2023-05-06T03:01:39.061Z,92.43
2023-05-06T03:02:39.008Z,93.04
2023-05-06T03:03:38.980Z,93.35
2023-05-06T03:04:38.997Z,92.83
2023-05-06T03:05:38.991Z,92.63
2023-05-06T03:06:38.931Z,93.25
2023-05-06T03:07:38.946Z,92.83
2023-05-06T03:08:38.891Z,92.83
2023-05-06T03:09:38.890Z,92.94
2023-05-06T03:10:38.877Z,92.74
2023-05-06T03:11:38.929Z,92.57
2023-05-06T03:12:38.908Z,92.57
2023-05-06T03:13:38.818Z,92.27
2023-05-06T03:14:38.830Z,91.86
2023-05-06T03:15:38.800Z,92.51
2023-05-06T03:16:38.799Z,93.33
2023-05-06T03:17:38.782Z,93.44
2023-05-06T03:18:38.775Z,93.64
2023-05-06T03:19:38.779Z,93.02
2023-05-06T03:20:38.723Z,93.44
2023-05-06T03:21:38.750Z,93.74
2023-05-06T03:22:38.716Z,93.64
2023-05-06T03:23:38.740Z,94.05
2023-05-06T03:24:38.705Z,93.85
2023-05-06T03:25:38.709Z,93.95
2023-05-06T03:26:38.677Z,94.26
2023-05-06T03:27:38.662Z,93.54
2023-05-06T03:28:38.674Z,93.74
2023-05-06T03:29:38.653Z,93.95
2023-05-06T03:30:38.638Z,93.33
2023-05-06T03:31:38.642Z,93.74
2023-05-06T03:32:38.645Z,93.95
2023-05-06T03:33:38.651Z,93.64
2023-05-06T03:34:38.566Z,93.85
2023-05-06T03:35:38.586Z,93.74
2023-05-06T03:36:38.587Z,94.11
2023-05-06T03:37:38.566Z,92.41
2023-05-06T03:38:38.553Z,92.72
2023-05-06T03:39:38.527Z,93.44
2023-05-06T03:40:38.552Z,93.64
2023-05-06T03:41:38.510Z,93.95
2023-05-06T03:42:38.542Z,93.95
2023-05-06T03:43:38.535Z,93.33
2023-05-06T03:44:38.533Z,93.64
2023-05-06T03:45:38.462Z,93.95
2023-05-06T03:46:38.515Z,93.74
2023-05-06T03:47:38.522Z,94.15
2023-05-06T03:48:38.421Z,93.54
2023-05-06T03:49:38.471Z,93.23
2023-05-06T03:50:38.400Z,93.33
2023-05-06T03:51:38.420Z,92.51
2023-05-06T03:52:38.393Z,91.90
2023-05-06T03:53:38.412Z,92.31
2023-05-06T03:54:38.357Z,92.10
2023-05-06T03:55:38.366Z,92.61
2023-05-06T03:56:38.358Z,92.41
2023-05-06T03:57:38.341Z,93.02
2023-05-06T03:58:38.317Z,93.23
2023-05-06T03:59:38.319Z,92.35
2023-05-06T04:00:38.301Z,92.86
2023-05-06T04:01:38.390Z,93.17
2023-05-06T04:02:38.323Z,93.59
2023-05-06T04:03:38.304Z,93.74
2023-05-06T04:04:38.248Z,94.05
2023-05-06T04:05:38.268Z,94.46
2023-05-06T04:06:38.239Z,94.36
2023-05-06T04:07:38.234Z,94.15
2023-05-06T04:08:38.214Z,94.05
2023-05-06T04:09:38.234Z,92.93
2023-05-06T04:10:38.189Z,93.13
2023-05-06T04:11:38.189Z,92.51
2023-05-06T04:12:38.188Z,91.80
2023-05-06T04:13:38.201Z,92.00
2023-05-06T04:14:38.166Z,92.82
2023-05-06T04:15:38.168Z,93.48
2023-05-06T04:16:38.230Z,92.93
2023-05-06T04:17:38.222Z,92.93
2023-05-06T04:18:38.091Z,93.02
2023-05-06T04:19:38.138Z,92.61
2023-05-06T04:20:38.985Z,92.41
2023-05-06T04:21:38.100Z,91.63
2023-05-06T04:22:38.079Z,92.04
2023-05-06T04:23:38.063Z,91.94
2023-05-06T04:24:38.054Z,91.84
2023-05-06T04:25:38.050Z,92.04
2023-05-06T04:26:38.019Z,93.07
2023-05-06T04:27:38.008Z,93.38
2023-05-06T04:28:38.007Z,93.17
2023-05-06T04:29:37.996Z,93.59
2023-05-06T04:30:38.010Z,93.48
2023-05-06T04:31:38.000Z,93.64
2023-05-06T04:32:37.987Z,93.02
2023-05-06T04:33:37.945Z,92.93
2023-05-06T04:34:37.945Z,92.41
2023-05-06T04:35:37.934Z,91.90
2023-05-06T04:36:40.490Z,92.00
2023-05-06T04:37:37.913Z,90.87
2023-05-06T04:38:37.885Z,90.61
2023-05-06T04:39:37.932Z,91.02
2023-05-06T04:40:37.871Z,91.42
2023-05-06T04:41:37.860Z,91.74
2023-05-06T04:42:37.889Z,91.94
2023-05-06T04:43:37.869Z,92.66
2023-05-06T04:44:37.846Z,92.04
2023-05-06T04:45:37.922Z,91.53
2023-05-06T04:46:37.807Z,91.94
2023-05-06T04:47:37.840Z,91.94
2023-05-06T04:48:37.823Z,92.04
2023-05-06T04:49:37.768Z,92.04
2023-05-06T04:50:37.779Z,91.69
2023-05-06T04:51:37.748Z,90.91
2023-05-06T04:52:37.762Z,91.90
2023-05-06T04:53:37.735Z,92.31
2023-05-06T04:54:37.732Z,91.02
2023-05-06T04:55:37.715Z,91.12
2023-05-06T04:56:37.739Z,91.22
2023-05-06T04:57:37.723Z,91.38
2023-05-06T04:58:37.714Z,91.90
2023-05-06T04:59:37.671Z,91.69
2023-05-06T05:00:37.689Z,91.28
2023-05-06T05:01:37.692Z,91.08
2023-05-06T05:02:37.762Z,91.18
2023-05-06T05:03:37.665Z,91.28
2023-05-06T05:04:37.647Z,90.56
2023-05-06T05:05:37.616Z,90.46
2023-05-06T05:06:37.619Z,90.87
2023-05-06T05:07:37.577Z,90.56
2023-05-06T05:08:37.572Z,89.84
2023-05-06T05:09:37.564Z,90.46
2023-05-06T05:10:37.585Z,89.75
2023-05-06T05:11:37.567Z,89.95
2023-05-06T05:12:37.556Z,90.46
2023-05-06T05:13:37.506Z,91.18
2023-05-06T05:14:37.491Z,91.69
2023-05-06T05:15:37.507Z,91.59
2023-05-06T05:16:37.502Z,91.28
2023-05-06T05:17:37.487Z,90.67
2023-05-06T05:18:37.463Z,90.16
2023-05-06T05:19:37.485Z,90.26
2023-05-06T05:20:37.466Z,90.05
2023-05-06T05:21:37.501Z,91.08
2023-05-06T05:22:37.433Z,91.49
2023-05-06T05:23:37.442Z,91.49
2023-05-06T05:24:37.418Z,91.65
2023-05-06T05:25:37.409Z,91.86
2023-05-06T05:26:37.390Z,91.65
2023-05-06T05:27:37.364Z,92.36
2023-05-06T05:28:37.388Z,91.86
2023-05-06T05:29:37.381Z,91.35
2023-05-06T05:30:37.334Z,90.93
2023-05-06T05:31:37.353Z,89.81
2023-05-06T05:32:37.350Z,89.50
2023-05-06T05:33:37.354Z,89.70
2023-05-06T05:34:37.322Z,89.81
2023-05-06T05:35:37.269Z,90.32
2023-05-06T05:36:37.258Z,90.52
2023-05-06T05:37:37.252Z,90.11
2023-05-06T05:38:37.268Z,90.28
2023-05-06T05:39:37.251Z,89.81
2023-05-06T05:40:37.212Z,89.45
2023-05-06T05:41:37.203Z,89.36
2023-05-06T05:42:37.201Z,88.94
2023-05-06T05:43:37.236Z,89.36
2023-05-06T05:44:37.173Z,88.74
2023-05-06T05:45:37.165Z,88.84
2023-05-06T05:46:37.190Z,88.33
2023-05-06T05:47:37.175Z,87.92
2023-05-06T05:48:37.153Z,88.33
2023-05-06T05:49:37.168Z,88.53
2023-05-06T05:50:37.112Z,88.12
2023-05-06T05:51:37.130Z,88.84
2023-05-06T05:52:37.112Z,88.23
2023-05-06T05:53:37.105Z,88.53
2023-05-06T05:54:37.061Z,88.84
2023-05-06T05:55:37.067Z,89.36
2023-05-06T05:56:37.080Z,89.36
2023-05-06T05:57:37.096Z,88.84
2023-05-06T05:58:37.052Z,88.23
2023-05-06T05:59:37.012Z,88.02
2023-05-06T06:00:37.004Z,88.18
2023-05-06T06:01:36.990Z,87.57
2023-05-06T06:02:37.082Z,88.18
2023-05-06T06:03:37.088Z,87.41
2023-05-06T06:04:36.967Z,87.47
2023-05-06T06:05:36.975Z,87.57
2023-05-06T06:06:36.921Z,87.98
2023-05-06T06:07:36.926Z,87.67
2023-05-06T06:08:36.937Z,87.47
2023-05-06T06:09:36.904Z,88.08
2023-05-06T06:10:36.893Z,87.88
2023-05-06T06:11:36.935Z,88.33
2023-05-06T06:12:36.893Z,88.43
2023-05-06T06:13:36.874Z,87.82
2023-05-06T06:14:36.858Z,87.16
2023-05-06T06:15:36.833Z,87.10
2023-05-06T06:16:36.909Z,87.47
2023-05-06T06:17:36.858Z,88.90
2023-05-06T06:18:36.822Z,88.59
2023-05-06T06:19:36.783Z,88.59
2023-05-06T06:20:36.797Z,89.11
2023-05-06T06:21:36.795Z,88.59
2023-05-06T06:22:36.754Z,88.18
2023-05-06T06:23:36.804Z,87.16
2023-05-06T06:24:36.743Z,86.65
2023-05-06T06:25:36.764Z,87.47
2023-05-06T06:26:36.718Z,87.47
2023-05-06T06:27:36.814Z,87.88
2023-05-06T06:28:36.719Z,88.59
2023-05-06T06:29:36.735Z,88.49
2023-05-06T06:30:36.721Z,89.21
2023-05-06T06:31:39.012Z,87.98
2023-05-06T06:32:36.756Z,87.57
2023-05-06T06:33:36.653Z,87.57
2023-05-06T06:34:36.655Z,86.55
2023-05-06T06:35:36.658Z,86.85
2023-05-06T06:36:36.602Z,87.26
2023-05-06T06:37:36.639Z,86.75
2023-05-06T06:38:36.594Z,86.44
2023-05-06T06:39:36.589Z,86.55
2023-05-06T06:40:36.613Z,87.26
2023-05-06T06:41:36.572Z,86.85
2023-05-06T06:42:36.555Z,86.65
2023-05-06T06:43:36.521Z,87.88
2023-05-06T06:44:36.553Z,87.98
2023-05-06T06:45:36.573Z,87.98
2023-05-06T06:46:36.502Z,87.16
2023-05-06T06:47:36.520Z,87.37
2023-05-06T06:48:36.498Z,87.06
2023-05-06T06:49:36.480Z,86.44
2023-05-06T06:50:36.461Z,86.14
2023-05-06T06:51:36.444Z,86.14
2023-05-06T06:52:36.462Z,86.04
2023-05-06T06:53:36.470Z,86.55
2023-05-06T06:54:36.431Z,87.67
2023-05-06T06:55:36.418Z,87.77
2023-05-06T06:56:36.408Z,87.37
2023-05-06T06:57:36.397Z,86.34
2023-05-06T06:58:36.395Z,86.14
2023-05-06T06:59:36.369Z,86.07
2023-05-06T07:00:36.368Z,86.04
2023-05-06T07:01:36.384Z,86.04
2023-05-06T07:02:36.485Z,86.75
2023-05-06T07:03:36.354Z,86.18
2023-05-06T07:04:36.412Z,85.77
2023-05-06T07:05:36.328Z,86.24
2023-05-06T07:06:36.337Z,86.48
2023-05-06T07:07:36.334Z,87.16
2023-05-06T07:08:36.270Z,86.96
2023-05-06T07:09:37.311Z,87.26
2023-05-06T07:10:36.263Z,87.37
2023-05-06T07:11:36.235Z,86.55
2023-05-06T07:12:36.280Z,86.14
2023-05-06T07:13:36.236Z,86.44
2023-05-06T07:14:36.234Z,86.79
2023-05-06T07:15:36.205Z,87.10
2023-05-06T07:16:36.263Z,87.20
2023-05-06T07:17:36.198Z,86.79
2023-05-06T07:18:36.157Z,87.47
2023-05-06T07:19:36.144Z,87.37
2023-05-06T07:20:36.155Z,86.85
2023-05-06T07:21:36.145Z,86.65
2023-05-06T07:22:36.142Z,87.16
2023-05-06T07:23:36.113Z,87.57
2023-05-06T07:24:36.114Z,86.85
2023-05-06T07:25:36.135Z,86.96
2023-05-06T07:26:36.098Z,86.65
2023-05-06T07:27:36.083Z,86.55
2023-05-06T07:28:36.088Z,86.44
2023-05-06T07:29:36.040Z,86.34
2023-05-06T07:30:36.082Z,86.96
2023-05-06T07:31:36.058Z,87.67
2023-05-06T07:32:36.123Z,88.18
2023-05-06T07:33:36.010Z,88.39
2023-05-06T07:34:35.997Z,88.29
2023-05-06T07:35:36.005Z,88.29
2023-05-06T07:36:37.941Z,87.57
2023-05-06T07:37:35.972Z,87.47
2023-05-06T07:38:35.962Z,87.47
2023-05-06T07:39:35.962Z,87.77
2023-05-06T07:40:35.960Z,88.18
2023-05-06T07:41:35.913Z,88.80
2023-05-06T07:42:35.904Z,89.21
2023-05-06T07:43:35.932Z,88.90
2023-05-06T07:44:35.915Z,88.70
2023-05-06T07:45:35.881Z,89.51
2023-05-06T07:46:36.028Z,89.83
2023-05-06T07:47:35.937Z,89.42
2023-05-06T07:48:35.969Z,89.62
2023-05-06T07:49:35.889Z,89.83
2023-05-06T07:50:35.819Z,89.42
2023-05-06T07:51:35.813Z,89.72
2023-05-06T07:52:35.809Z,88.74
2023-05-06T07:53:35.800Z,89.04
2023-05-06T07:54:35.828Z,89.66
2023-05-06T07:55:35.760Z,89.76
2023-05-06T07:56:35.773Z,89.97
2023-05-06T07:57:35.752Z,89.97
2023-05-06T07:58:35.756Z,90.28
2023-05-06T07:59:35.719Z,90.28
2023-05-06T08:00:35.739Z,89.87
2023-05-06T08:01:35.696Z,90.48
2023-05-06T08:02:35.840Z,91.40
2023-05-06T08:03:36.005Z,92.12
2023-05-06T08:04:35.716Z,92.63
2023-05-06T08:05:35.677Z,92.53
2023-05-06T08:06:35.635Z,91.97
2023-05-06T08:07:35.669Z,91.77
2023-05-06T08:08:35.645Z,91.67
2023-05-06T08:09:35.613Z,91.56
2023-05-06T08:10:35.613Z,91.16
2023-05-06T08:11:35.598Z,91.16
2023-05-06T08:12:35.647Z,91.97
2023-05-06T08:13:35.591Z,92.18
2023-05-06T08:14:35.588Z,92.18
2023-05-06T08:15:35.542Z,92.59
2023-05-06T08:16:35.611Z,92.69
2023-05-06T08:17:35.592Z,92.38
2023-05-06T08:18:35.531Z,91.97
2023-05-06T08:19:35.507Z,91.93
2023-05-06T08:20:35.521Z,91.52
2023-05-06T08:21:35.507Z,91.83
2023-05-06T08:22:35.510Z,92.03
2023-05-06T08:23:35.465Z,91.42
2023-05-06T08:24:35.476Z,90.91
2023-05-06T08:25:35.472Z,91.52
2023-05-06T08:26:35.486Z,91.22
2023-05-06T08:27:35.441Z,90.70
2023-05-06T08:28:35.420Z,90.91
2023-05-06T08:29:35.409Z,90.09
2023-05-06T08:30:35.445Z,89.58
2023-05-06T08:31:35.472Z,89.89
2023-05-06T08:32:35.406Z,90.19
2023-05-06T08:33:35.442Z,90.64
2023-05-06T08:34:35.404Z,90.64
2023-05-06T08:35:35.354Z,90.54
2023-05-06T08:36:36.082Z,90.91
2023-05-06T08:37:35.326Z,90.81
2023-05-06T08:38:35.367Z,90.81
2023-05-06T08:39:35.292Z,90.81
2023-05-06T08:40:35.351Z,90.60
2023-05-06T08:41:35.313Z,90.09
2023-05-06T08:42:35.275Z,89.98
2023-05-06T08:43:35.365Z,90.70
2023-05-06T08:44:35.244Z,91.01
2023-05-06T08:45:35.324Z,90.70
2023-05-06T08:46:35.226Z,91.11
2023-05-06T08:47:35.260Z,91.93
2023-05-06T08:48:35.216Z,91.93
2023-05-06T08:49:35.228Z,91.93
2023-05-06T08:50:35.209Z,91.93
2023-05-06T08:51:35.184Z,91.42
2023-05-06T08:52:35.148Z,91.63
2023-05-06T08:53:35.151Z,91.31
2023-05-06T08:54:35.153Z,91.42
2023-05-06T08:55:35.179Z,91.42
2023-05-06T08:56:35.106Z,91.22
2023-05-06T08:57:35.112Z,90.50
2023-05-06T08:58:35.093Z,90.70
2023-05-06T08:59:35.154Z,91.01
2023-05-06T09:00:35.075Z,91.22
2023-05-06T09:01:35.078Z,91.73
2023-05-06T09:02:35.122Z,92.03
2023-05-06T09:03:35.090Z,92.14
2023-05-06T09:04:35.063Z,91.69
2023-05-06T09:05:35.045Z,90.81
2023-05-06T09:06:35.066Z,90.45
2023-05-06T09:07:35.025Z,90.45
2023-05-06T09:08:35.008Z,90.77
2023-05-06T09:09:34.982Z,90.30
2023-05-06T09:10:35.095Z,90.05
2023-05-06T09:11:34.994Z,90.45
2023-05-06T09:12:34.965Z,89.84
2023-05-06T09:13:34.941Z,89.06
2023-05-06T09:14:34.951Z,88.96
2023-05-06T09:15:34.952Z,89.78
2023-05-06T09:16:34.947Z,89.78
2023-05-06T09:17:34.904Z,90.09
2023-05-06T09:18:34.919Z,89.98
2023-05-06T09:19:34.985Z,89.68
2023-05-06T09:20:34.859Z,90.19
2023-05-06T09:21:34.869Z,89.89
2023-05-06T09:22:34.898Z,89.17
2023-05-06T09:23:34.873Z,89.37
2023-05-06T09:24:34.851Z,89.47
2023-05-06T09:25:34.847Z,89.89
2023-05-06T09:26:34.826Z,90.09
2023-05-06T09:27:34.836Z,89.68
2023-05-06T09:28:34.781Z,89.47
2023-05-06T09:29:34.784Z,89.47
2023-05-06T09:30:34.773Z,89.98
2023-05-06T09:31:34.818Z,89.89
2023-05-06T09:32:35.719Z,90.15
2023-05-06T09:33:34.740Z,90.36
2023-05-06T09:34:34.718Z,89.43
2023-05-06T09:35:34.733Z,89.12
2023-05-06T09:36:34.744Z,89.84
2023-05-06T09:37:34.737Z,89.53
2023-05-06T09:38:34.696Z,89.23
2023-05-06T09:39:34.689Z,88.71
2023-05-06T09:40:34.708Z,88.51
2023-05-06T09:41:34.664Z,88.57
2023-05-06T09:42:34.658Z,88.57
2023-05-06T09:43:34.629Z,88.47
2023-05-06T09:44:34.612Z,87.96
2023-05-06T09:45:34.637Z,88.37
2023-05-06T09:46:34.729Z,88.57
2023-05-06T09:47:34.693Z,88.68
2023-05-06T09:48:34.638Z,88.26
2023-05-06T09:49:34.593Z,88.88
2023-05-06T09:50:34.575Z,89.39
2023-05-06T09:51:34.551Z,88.78
2023-05-06T09:52:34.545Z,88.26
2023-05-06T09:53:34.655Z,87.45
2023-05-06T09:54:34.536Z,87.65
2023-05-06T09:55:34.552Z,88.06
2023-05-06T09:56:34.513Z,88.17
2023-05-06T09:57:34.487Z,88.57
2023-05-06T09:58:34.523Z,87.96
2023-05-06T09:59:34.690Z,87.96
2023-05-06T10:00:34.811Z,88.26
2023-05-06T10:01:37.378Z,87.96
2023-05-06T10:02:34.579Z,88.37
2023-05-06T10:03:34.624Z,88.78
2023-05-06T10:04:34.507Z,88.37
2023-05-06T10:05:34.403Z,88.12
2023-05-06T10:06:34.422Z,88.02
2023-05-06T10:07:34.436Z,88.23
2023-05-06T10:08:34.421Z,87.92
2023-05-06T10:09:34.441Z,87.51
2023-05-06T10:10:34.438Z,87.82
2023-05-06T10:11:34.360Z,87.51
2023-05-06T10:12:34.425Z,87.00
2023-05-06T10:13:34.366Z,86.59
2023-05-06T10:14:34.374Z,87.30
2023-05-06T10:15:34.287Z,87.51
2023-05-06T10:16:34.340Z,87.61
2023-05-06T10:17:34.299Z,87.41
2023-05-06T10:18:34.289Z,87.00
2023-05-06T10:19:34.257Z,86.90
2023-05-06T10:20:34.236Z,87.30
2023-05-06T10:21:34.252Z,87.00
2023-05-06T10:22:34.223Z,86.90
2023-05-06T10:23:34.248Z,87.41
2023-05-06T10:24:34.209Z,87.20
2023-05-06T10:25:34.197Z,87.30
2023-05-06T10:26:34.168Z,86.90
2023-05-06T10:27:34.247Z,86.49
2023-05-06T10:28:34.184Z,86.49
2023-05-06T10:29:34.190Z,87.41
2023-05-06T10:30:34.123Z,87.41
2023-05-06T10:31:34.186Z,87.51
2023-05-06T10:32:34.141Z,87.41
2023-05-06T10:33:34.098Z,87.71
2023-05-06T10:34:34.091Z,87.71
2023-05-06T10:35:34.061Z,87.61
2023-05-06T10:36:34.079Z,87.51
2023-05-06T10:37:34.077Z,87.10
2023-05-06T10:38:34.060Z,87.00
2023-05-06T10:39:34.032Z,87.10
2023-05-06T10:40:34.021Z,86.90
2023-05-06T10:41:34.037Z,86.90
2023-05-06T10:42:34.011Z,86.69
2023-05-06T10:43:34.016Z,87.20
2023-05-06T10:44:33.984Z,86.90
2023-05-06T10:45:33.992Z,86.29
2023-05-06T10:46:33.976Z,86.38
2023-05-06T10:47:34.027Z,86.49
2023-05-06T10:48:33.956Z,86.08
2023-05-06T10:49:33.919Z,86.08
2023-05-06T10:50:33.904Z,86.49
2023-05-06T10:51:33.933Z,86.38
2023-05-06T10:52:33.904Z,86.90
2023-05-06T10:53:33.891Z,86.79
2023-05-06T10:54:33.854Z,86.79
2023-05-06T10:55:33.916Z,87.10
2023-05-06T10:56:33.873Z,86.90
2023-05-06T10:57:33.859Z,86.94
2023-05-06T10:58:33.814Z,86.83
2023-05-06T10:59:33.840Z,86.63
2023-05-06T11:00:33.809Z,86.83
2023-05-06T11:01:33.886Z,87.45
2023-05-06T11:02:33.917Z,87.24
2023-05-06T11:03:33.859Z,87.85
2023-05-06T11:04:33.820Z,87.65
2023-05-06T11:05:33.808Z,87.76
2023-05-06T11:06:33.755Z,87.55
2023-05-06T11:07:33.761Z,87.76
2023-05-06T11:08:33.722Z,87.45
2023-05-06T11:09:33.721Z,87.85
2023-05-06T11:10:33.736Z,87.85
2023-05-06T11:11:33.744Z,88.06
2023-05-06T11:12:33.720Z,88.17
2023-05-06T11:13:33.676Z,87.85
2023-05-06T11:14:33.687Z,87.96
2023-05-06T11:15:33.664Z,88.68
2023-05-06T11:16:33.666Z,87.85
2023-05-06T11:17:33.681Z,87.96
2023-05-06T11:18:34.986Z,88.17
2023-05-06T11:19:33.622Z,87.65
2023-05-06T11:20:33.606Z,87.65
2023-05-06T11:21:34.119Z,87.96
2023-05-06T11:22:33.672Z,88.06
2023-05-06T11:23:33.565Z,87.45
2023-05-06T11:24:33.553Z,88.06
2023-05-06T11:25:33.556Z,87.65
2023-05-06T11:26:33.524Z,88.78
2023-05-06T11:27:33.521Z,91.29
2023-05-06T11:28:33.509Z,89.35
2023-05-06T11:29:33.517Z,89.72
2023-05-06T11:30:33.508Z,88.29
2023-05-06T11:31:33.568Z,88.70
2023-05-06T11:32:33.461Z,86.35
2023-05-06T11:33:33.469Z,86.85
2023-05-06T11:34:33.442Z,86.00
2023-05-06T11:35:33.678Z,86.51
2023-05-06T11:36:33.409Z,84.88
2023-05-06T11:37:33.473Z,85.59
2023-05-06T11:38:33.398Z,85.38
2023-05-06T11:39:39.134Z,86.10
2023-05-06T11:40:33.389Z,84.98
2023-05-06T11:41:33.410Z,84.26
2023-05-06T11:42:33.412Z,84.47
2023-05-06T11:43:33.365Z,83.04
2023-05-06T11:44:33.364Z,83.18
2023-05-06T11:45:33.401Z,84.20
2023-05-06T11:46:33.373Z,84.30
2023-05-06T11:47:33.380Z,84.09
2023-05-06T11:48:33.294Z,85.32
2023-05-06T11:49:35.493Z,85.63
2023-05-06T11:50:33.313Z,84.30
2023-05-06T11:51:33.319Z,84.24
2023-05-06T11:52:33.271Z,85.16
2023-05-06T11:53:33.275Z,85.47
2023-05-06T11:54:33.233Z,84.85
2023-05-06T11:55:33.259Z,84.44
2023-05-06T11:56:33.236Z,84.75
2023-05-06T11:57:33.201Z,84.75
2023-05-06T11:58:33.179Z,84.34
2023-05-06T11:59:33.164Z,84.34
2023-05-06T12:00:33.195Z,84.95
2023-05-06T12:01:33.259Z,85.06
2023-05-06T12:02:33.168Z,85.06
2023-05-06T12:03:33.528Z,84.55
2023-05-06T12:04:33.205Z,84.65
2023-05-06T12:05:33.166Z,84.44
2023-05-06T12:06:33.135Z,84.34
2023-05-06T12:07:33.076Z,84.44
2023-05-06T12:08:33.097Z,83.97
2023-05-06T12:09:33.048Z,83.87
2023-05-06T12:10:33.071Z,84.07
2023-05-06T12:11:33.066Z,84.48
2023-05-06T12:12:33.071Z,84.99
2023-05-06T12:13:33.004Z,84.99
2023-05-06T12:14:32.992Z,84.89
2023-05-06T12:15:33.005Z,84.58
2023-05-06T12:16:33.051Z,84.48
2023-05-06T12:17:33.015Z,84.69
2023-05-06T12:18:32.988Z,84.99
2023-05-06T12:19:32.951Z,84.79
2023-05-06T12:20:32.940Z,84.38
2023-05-06T12:21:32.935Z,84.28
2023-05-06T12:22:32.908Z,84.89
2023-05-06T12:23:32.974Z,84.38
2023-05-06T12:24:32.900Z,84.17
2023-05-06T12:25:32.913Z,84.28
2023-05-06T12:26:32.925Z,84.79
2023-05-06T12:27:32.926Z,84.89
2023-05-06T12:28:32.878Z,84.17
2023-05-06T12:29:32.978Z,84.58
2023-05-06T12:30:32.826Z,83.36
2023-05-06T12:31:32.870Z,84.11
2023-05-06T12:32:32.839Z,84.31
2023-05-06T12:33:32.901Z,84.31
2023-05-06T12:34:32.822Z,84.83
2023-05-06T12:35:32.841Z,85.38
2023-05-06T12:36:32.774Z,85.96
2023-05-06T12:37:32.814Z,85.85
2023-05-06T12:38:32.734Z,86.16
2023-05-06T12:39:32.747Z,85.96
2023-05-06T12:40:32.738Z,85.75
2023-05-06T12:41:32.711Z,86.22
2023-05-06T12:42:32.728Z,85.91
2023-05-06T12:43:32.767Z,85.61
2023-05-06T12:44:32.728Z,84.89
2023-05-06T12:45:32.748Z,85.81
2023-05-06T12:46:32.850Z,85.40
2023-05-06T12:47:32.662Z,85.91
2023-05-06T12:48:32.679Z,85.50
2023-05-06T12:49:32.695Z,84.69
2023-05-06T12:50:32.677Z,84.28
2023-05-06T12:51:32.606Z,84.07
2023-05-06T12:52:32.631Z,83.76